createdAt,value
2022-10-24T00:01:55.961Z,27.17
2022-10-24T00:04:23.770Z,25.35
2022-10-24T00:06:58.928Z,31.67
2022-10-24T00:09:26.814Z,26.20
2022-10-24T00:11:55.521Z,31.48
2022-10-24T00:14:25.927Z,24.10
2022-10-24T00:16:56.426Z,21.23
2022-10-24T00:19:27.358Z,30.33
2022-10-24T00:21:55.588Z,30.48
2022-10-24T00:24:25.218Z,31.73
2022-10-24T00:26:55.916Z,32.58
2022-10-24T00:29:25.789Z,24.20
2022-10-24T00:31:53.644Z,30.00
2022-10-24T00:34:22.090Z,33.15
2022-10-24T00:36:50.010Z,40.90
2022-10-24T00:39:18.282Z,29.58
2022-10-24T00:41:46.183Z,30.20
2022-10-24T00:44:20.455Z,29.60
2022-10-24T00:46:53.193Z,29.17
2022-10-24T00:51:59.828Z,35.03
2022-10-24T00:54:30.305Z,33.25
2022-10-24T00:57:07.237Z,31.75
2022-10-24T00:59:37.050Z,31.88
2022-10-24T01:02:05.149Z,28.23
2022-10-24T01:04:32.677Z,32.47
2022-10-24T01:07:22.358Z,27.67
2022-10-24T01:10:15.825Z,26.02
2022-10-24T01:12:53.784Z,27.15
2022-10-24T01:15:51.780Z,28.20
2022-10-24T01:18:25.653Z,30.05
2022-10-24T01:21:26.130Z,20.08
2022-10-24T01:24:15.047Z,23.27
2022-10-24T01:27:04.053Z,31.92
2022-10-24T01:29:43.807Z,23.48
2022-10-24T01:32:39.015Z,23.52
2022-10-24T01:35:36.994Z,22.60
2022-10-24T01:38:30.299Z,29.65
2022-10-24T01:41:04.624Z,24.73
2022-10-24T01:43:42.950Z,26.77
2022-10-24T01:46:20.729Z,23.70
2022-10-24T01:48:56.120Z,27.00
2022-10-24T01:51:28.075Z,35.97
2022-10-24T01:53:57.648Z,22.17
2022-10-24T01:56:27.060Z,23.23
2022-10-24T02:02:12.964Z,24.05
2022-10-24T02:04:52.021Z,24.05
2022-10-24T02:07:21.430Z,32.58
2022-10-24T02:09:53.717Z,32.75
2022-10-24T02:12:24.532Z,28.60
2022-10-24T02:14:57.694Z,27.98
2022-10-24T02:17:25.209Z,28.83
2022-10-24T02:19:52.658Z,30.30
2022-10-24T02:22:22.837Z,30.25
2022-10-24T02:25:00.731Z,35.80
2022-10-24T02:27:50.380Z,34.95
2022-10-24T02:30:26.201Z,29.90
2022-10-24T02:32:58.266Z,28.05
2022-10-24T02:35:34.872Z,28.35
2022-10-24T02:38:09.777Z,26.42
2022-10-24T02:40:38.329Z,27.70
2022-10-24T02:43:11.173Z,24.08
2022-10-24T02:45:39.432Z,19.05
2022-10-24T02:48:11.975Z,29.45
2022-10-24T02:50:43.612Z,24.63
2022-10-24T02:53:15.909Z,32.70
2022-10-24T02:55:43.154Z,32.83
2022-10-24T02:58:10.452Z,30.98
2022-10-24T03:00:38.057Z,41.10
2022-10-24T03:03:05.618Z,29.17
2022-10-24T03:05:35.349Z,34.50
2022-10-24T03:08:02.923Z,23.95
2022-10-24T03:10:30.529Z,24.58
2022-10-24T03:12:58.029Z,35.78
2022-10-24T03:15:25.434Z,21.95
2022-10-24T03:17:53.333Z,29.48
2022-10-24T03:20:20.988Z,32.90
2022-10-24T03:22:48.760Z,31.60
2022-10-24T03:25:16.578Z,24.08
2022-10-24T03:27:48.382Z,32.88
2022-10-24T03:30:16.316Z,22.48
2022-10-24T03:32:44.710Z,25.13
2022-10-24T03:35:14.278Z,22.52
2022-10-24T03:37:47.998Z,21.48
2022-10-24T03:40:18.983Z,24.13
2022-10-24T03:42:52.390Z,24.95
2022-10-24T03:45:20.201Z,26.77
2022-10-24T03:47:47.911Z,22.00
2022-10-24T03:50:16.189Z,30.80
2022-10-24T03:52:44.313Z,23.80
2022-10-24T03:55:13.649Z,30.30
2022-10-24T03:57:41.709Z,25.20
2022-10-24T04:00:10.577Z,24.63
2022-10-24T04:02:40.275Z,20.23
2022-10-24T04:05:11.367Z,24.08
2022-10-24T04:07:39.193Z,16.63
2022-10-24T04:10:07.718Z,10.93
2022-10-24T04:12:35.224Z,13.38
2022-10-24T04:15:04.952Z,16.02
2022-10-24T04:17:33.929Z,13.38
2022-10-24T04:20:01.896Z,16.63
2022-10-24T04:22:29.685Z,10.98
2022-10-24T04:24:57.451Z,12.40
2022-10-24T04:27:25.397Z,9.00
2022-10-24T04:29:53.457Z,11.27
2022-10-24T04:32:21.873Z,10.50
2022-10-24T04:34:49.561Z,13.57
2022-10-24T04:37:17.789Z,7.60
2022-10-24T04:39:45.307Z,12.30
2022-10-24T04:42:12.824Z,18.23
2022-10-24T04:44:40.307Z,13.18
2022-10-24T04:47:08.171Z,16.00
2022-10-24T04:49:36.251Z,21.45
2022-10-24T04:52:04.213Z,15.68
2022-10-24T04:54:32.180Z,11.50
2022-10-24T04:57:00.146Z,10.73
2022-10-24T04:59:27.876Z,12.93
2022-10-24T05:01:55.988Z,13.68
2022-10-24T05:04:23.829Z,16.10
2022-10-24T05:06:51.770Z,10.95
2022-10-24T05:09:19.532Z,12.23
2022-10-24T05:11:47.222Z,18.35
2022-10-24T05:14:14.687Z,9.23
2022-10-24T05:16:42.202Z,9.18
2022-10-24T05:19:09.482Z,14.20
2022-10-24T05:21:36.872Z,10.85
2022-10-24T05:24:04.304Z,13.30
2022-10-24T05:26:32.091Z,15.43
2022-10-24T05:29:00.126Z,13.52
2022-10-24T05:34:04.132Z,16.35
2022-10-24T05:36:32.053Z,14.90
2022-10-24T05:38:59.868Z,13.88
2022-10-24T05:41:27.590Z,27.23
2022-10-24T05:43:55.392Z,33.88
2022-10-24T05:46:23.169Z,24.83
2022-10-24T05:48:50.901Z,22.23
2022-10-24T05:51:18.742Z,19.27
2022-10-24T05:53:46.817Z,17.95
2022-10-24T05:56:14.844Z,21.08
2022-10-24T05:58:42.693Z,29.15
2022-10-24T06:01:10.592Z,27.77
2022-10-24T06:03:40.177Z,27.30
2022-10-24T06:06:10.051Z,18.05
2022-10-24T06:08:47.796Z,25.83
2022-10-24T06:11:15.915Z,19.70
2022-10-24T06:13:47.409Z,32.67
2022-10-24T06:16:15.572Z,33.90
2022-10-24T06:18:43.859Z,34.05
2022-10-24T06:21:14.365Z,37.42
2022-10-24T06:23:45.150Z,37.28
2022-10-24T06:26:15.215Z,23.63
2022-10-24T06:28:45.980Z,41.17
2022-10-24T06:31:14.496Z,30.40
2022-10-24T06:33:42.825Z,34.35
2022-10-24T06:36:15.589Z,30.27
2022-10-24T06:38:43.433Z,34.10
2022-10-24T06:41:14.718Z,40.10
2022-10-24T06:43:43.017Z,49.33
2022-10-24T06:46:15.274Z,52.08
2022-10-24T06:48:46.379Z,44.08
2022-10-24T06:51:26.038Z,53.05
2022-10-24T06:53:53.979Z,45.03
2022-10-24T06:56:21.929Z,50.28
2022-10-24T06:58:50.203Z,35.88
2022-10-24T07:01:24.130Z,49.85
2022-10-24T07:03:52.916Z,32.72
2022-10-24T07:06:27.207Z,45.30
2022-10-24T07:08:56.991Z,42.50
2022-10-24T07:11:28.633Z,34.58
2022-10-24T07:14:00.081Z,30.45
2022-10-24T07:16:30.312Z,61.83
2022-10-24T07:18:58.643Z,46.00
2022-10-24T07:21:29.126Z,39.80
2022-10-24T07:23:57.916Z,40.60
2022-10-24T07:26:29.208Z,31.65
2022-10-24T07:29:03.526Z,30.08
2022-10-24T07:31:36.157Z,24.73
2022-10-24T07:34:06.743Z,23.33
2022-10-24T07:36:34.748Z,25.30
2022-10-24T07:39:02.883Z,26.27
2022-10-24T07:41:32.451Z,27.60
2022-10-24T07:44:04.822Z,20.70
2022-10-24T07:46:47.548Z,16.45
2022-10-24T07:49:15.368Z,22.15
2022-10-24T07:51:46.273Z,19.00
2022-10-24T07:54:17.078Z,17.67
2022-10-24T07:56:44.981Z,10.32
2022-10-24T07:59:36.995Z,22.27
2022-10-24T08:02:02.934Z,20.17
2022-10-24T08:04:30.957Z,16.55
2022-10-24T08:06:58.923Z,26.02
2022-10-24T08:09:27.345Z,19.38
2022-10-24T08:11:55.824Z,19.85
2022-10-24T08:14:24.365Z,26.23
2022-10-24T08:16:58.204Z,13.30
2022-10-24T08:19:28.702Z,18.77
2022-10-24T08:21:56.920Z,18.65
2022-10-24T08:24:25.003Z,15.57
2022-10-24T08:26:53.373Z,15.07
2022-10-24T08:29:23.506Z,26.40
2022-10-24T08:31:53.412Z,14.05
2022-10-24T08:34:26.854Z,12.13
2022-10-24T08:36:55.199Z,15.95
2022-10-24T08:39:22.900Z,18.55
2022-10-24T08:42:03.515Z,15.45
2022-10-24T08:44:45.204Z,17.42
2022-10-24T08:47:28.248Z,9.63
2022-10-24T08:50:04.772Z,15.98
2022-10-24T08:52:46.209Z,10.02
2022-10-24T08:55:37.071Z,27.08
2022-10-24T08:58:19.994Z,18.48
2022-10-24T09:00:56.610Z,14.93
2022-10-24T09:04:01.070Z,31.85
2022-10-24T09:06:35.201Z,15.02
2022-10-24T09:09:22.076Z,17.88
2022-10-24T09:12:11.513Z,22.35
2022-10-24T09:14:41.852Z,17.92
2022-10-24T09:17:22.365Z,11.23
2022-10-24T09:20:30.901Z,13.63
2022-10-24T09:23:05.268Z,13.68
2022-10-24T09:25:50.181Z,12.63
2022-10-24T09:28:22.252Z,10.50
2022-10-24T09:30:53.287Z,12.18
2022-10-24T09:33:43.601Z,12.07
2022-10-24T09:36:34.104Z,9.93
2022-10-24T09:39:40.316Z,14.23
2022-10-24T09:42:31.457Z,6.53
2022-10-24T09:45:04.197Z,11.07
2022-10-24T09:47:32.487Z,5.85
2022-10-24T09:50:10.315Z,4.47
2022-10-24T09:52:41.464Z,8.73
2022-10-24T09:55:25.166Z,4.38
2022-10-24T09:58:01.451Z,10.98
2022-10-24T10:00:34.256Z,8.90
2022-10-24T10:03:23.552Z,6.15
2022-10-24T10:06:09.408Z,9.80
2022-10-24T10:08:38.430Z,6.60
2022-10-24T10:11:10.071Z,7.25
2022-10-24T10:13:51.328Z,11.43
2022-10-24T10:16:30.437Z,7.15
2022-10-24T10:19:15.681Z,11.80
2022-10-24T10:22:07.181Z,7.85
2022-10-24T10:24:52.090Z,5.88
2022-10-24T10:27:40.928Z,7.20
2022-10-24T10:33:41.078Z,10.90
2022-10-24T10:36:27.924Z,6.93
2022-10-24T10:39:34.089Z,8.13
2022-10-24T10:42:18.487Z,5.57
2022-10-24T10:44:47.059Z,6.55
2022-10-24T10:47:27.895Z,9.68
2022-10-24T10:49:58.757Z,4.43
2022-10-24T10:52:33.267Z,11.30
2022-10-24T10:55:14.899Z,4.78
2022-10-24T10:58:09.825Z,6.22
2022-10-24T11:00:55.753Z,13.55
2022-10-24T11:04:28.182Z,7.00
2022-10-24T11:07:21.458Z,10.15
2022-10-24T11:09:52.218Z,6.35
2022-10-24T11:12:23.732Z,8.48
2022-10-24T11:15:15.187Z,12.93
2022-10-24T11:17:50.990Z,16.25
2022-10-24T11:20:25.619Z,11.88
2022-10-24T11:23:03.728Z,23.60
2022-10-24T11:25:37.739Z,16.75
2022-10-24T11:28:15.537Z,21.02
2022-10-24T11:30:50.627Z,10.40
2022-10-24T11:33:30.473Z,8.23
2022-10-24T11:36:31.153Z,18.77
2022-10-24T11:39:22.079Z,13.82
2022-10-24T11:42:16.661Z,12.55
2022-10-24T11:44:54.951Z,7.13
2022-10-24T11:47:32.114Z,21.88
2022-10-24T11:51:03.077Z,17.80
2022-10-24T11:53:39.945Z,13.23
2022-10-24T11:56:15.816Z,15.00
2022-10-24T11:59:09.006Z,20.00
2022-10-24T12:02:21.685Z,18.50
2022-10-24T12:05:11.462Z,17.10
2022-10-24T12:08:47.755Z,18.90
2022-10-24T12:11:41.227Z,25.92
2022-10-24T12:17:29.240Z,9.32
2022-10-24T12:20:10.214Z,21.60
2022-10-24T12:22:49.106Z,21.50
2022-10-24T12:25:36.508Z,10.82
2022-10-24T12:28:28.733Z,19.38
2022-10-24T12:31:33.180Z,23.00
2022-10-24T12:34:16.389Z,15.77
2022-10-24T12:37:13.797Z,18.02
2022-10-24T12:39:58.544Z,13.48
2022-10-24T12:42:32.050Z,19.25
2022-10-24T12:45:15.324Z,12.98
2022-10-24T12:47:57.330Z,17.98
2022-10-24T12:50:37.488Z,25.95
2022-10-24T12:53:33.745Z,17.38
2022-10-24T12:56:14.222Z,21.92
2022-10-24T12:58:47.343Z,18.75
2022-10-24T13:01:41.982Z,19.45
2022-10-24T13:04:48.068Z,17.08
2022-10-24T13:11:25.112Z,22.92
2022-10-24T13:14:23.724Z,20.52
2022-10-24T13:17:25.897Z,34.15
2022-10-24T13:20:26.086Z,21.13
2022-10-24T13:23:04.472Z,25.98
2022-10-24T13:25:53.843Z,25.48
2022-10-24T13:28:44.173Z,29.50
2022-10-24T13:31:21.013Z,18.50
2022-10-24T13:34:17.716Z,23.55
2022-10-24T13:37:32.792Z,28.73
2022-10-24T13:40:28.509Z,19.20
2022-10-24T13:43:18.235Z,16.42
2022-10-24T13:46:09.439Z,23.02
2022-10-24T13:48:48.990Z,14.30
2022-10-24T13:51:26.404Z,21.60
2022-10-24T13:54:01.205Z,19.17
2022-10-24T13:56:42.597Z,14.45
2022-10-24T13:59:48.954Z,25.83
2022-10-24T14:02:28.472Z,10.88
2022-10-24T14:05:08.479Z,15.82
2022-10-24T14:07:45.324Z,12.07
2022-10-24T14:10:19.794Z,12.93
2022-10-24T14:12:54.680Z,24.25
2022-10-24T14:15:33.399Z,18.00
2022-10-24T14:18:15.089Z,18.30
2022-10-24T14:20:51.749Z,18.20
2022-10-24T14:23:41.350Z,22.98
2022-10-24T14:26:33.215Z,26.40
2022-10-24T14:29:27.971Z,23.00
2022-10-24T14:32:16.665Z,12.48
2022-10-24T14:37:41.083Z,22.58
2022-10-24T14:40:19.497Z,18.20
2022-10-24T14:43:06.821Z,21.80
2022-10-24T14:45:38.636Z,30.67
2022-10-24T14:48:31.361Z,17.40
2022-10-24T14:51:11.684Z,16.60
2022-10-24T14:54:30.033Z,10.27
2022-10-24T14:57:18.334Z,19.60
2022-10-24T15:00:42.505Z,18.80
2022-10-24T15:03:19.867Z,13.15
2022-10-24T15:06:01.528Z,15.88
2022-10-24T15:08:43.283Z,13.52
2022-10-24T15:11:34.541Z,13.30
2022-10-24T15:14:49.785Z,15.25
2022-10-24T15:20:27.713Z,16.92
2022-10-24T15:23:11.780Z,16.23
2022-10-24T15:26:04.649Z,32.17
2022-10-24T15:28:46.870Z,13.70
2022-10-24T15:31:32.463Z,11.57
2022-10-24T15:34:04.280Z,11.30
2022-10-24T15:36:36.219Z,15.60
2022-10-24T15:39:23.082Z,18.05
2022-10-24T15:41:53.226Z,19.13
2022-10-24T15:44:38.765Z,11.52
2022-10-24T15:47:21.345Z,10.10
2022-10-24T15:49:59.674Z,7.25
2022-10-24T15:52:29.874Z,5.00
2022-10-24T15:55:01.232Z,7.82
2022-10-24T15:57:43.562Z,12.32
2022-10-24T16:00:26.305Z,12.38
2022-10-24T16:03:21.116Z,7.88
2022-10-24T16:06:05.346Z,4.60
2022-10-24T16:08:44.640Z,9.43
2022-10-24T16:11:48.262Z,6.40
2022-10-24T16:14:33.331Z,10.57
2022-10-24T16:17:32.695Z,7.20
2022-10-24T16:20:14.215Z,2.58
2022-10-24T16:23:01.254Z,6.78
2022-10-24T16:26:02.725Z,9.73
2022-10-24T16:28:38.594Z,4.60
2022-10-24T16:31:23.928Z,2.47
2022-10-24T16:33:59.957Z,4.07
2022-10-24T16:36:46.588Z,3.00
2022-10-24T16:39:43.280Z,7.72
2022-10-24T16:42:41.712Z,6.20
2022-10-24T16:45:27.500Z,4.43
2022-10-24T16:48:22.554Z,8.70
2022-10-24T16:51:08.239Z,6.05
2022-10-24T16:54:06.715Z,4.67
2022-10-24T16:57:09.052Z,4.05
2022-10-24T16:59:46.481Z,3.50
2022-10-24T17:02:52.609Z,10.23
2022-10-24T17:08:36.330Z,5.50
2022-10-24T17:11:43.932Z,3.85
2022-10-24T17:14:17.365Z,3.83
2022-10-24T17:17:40.375Z,8.98
2022-10-24T17:20:22.010Z,15.48
2022-10-24T17:23:01.677Z,40.13
2022-10-24T17:25:39.688Z,25.63
2022-10-24T17:28:22.714Z,10.05
2022-10-24T17:33:54.241Z,15.25
2022-10-24T17:36:47.007Z,6.63
2022-10-24T17:39:45.551Z,6.05
2022-10-24T17:42:49.727Z,9.23
2022-10-24T17:45:46.421Z,5.60
2022-10-24T17:48:28.079Z,4.63
2022-10-24T17:51:25.925Z,11.32
2022-10-24T17:54:11.128Z,4.82
2022-10-24T17:56:57.990Z,15.98
2022-10-24T17:59:57.129Z,5.55
2022-10-24T18:02:40.810Z,5.32
2022-10-24T18:05:29.014Z,5.57
2022-10-24T18:08:54.946Z,19.45
2022-10-24T18:11:51.209Z,11.55
2022-10-24T18:14:46.077Z,8.70
2022-10-24T18:17:39.461Z,7.10
2022-10-24T18:23:24.985Z,15.35
2022-10-24T18:26:15.788Z,13.77
2022-10-24T18:29:00.301Z,7.82
2022-10-24T18:31:36.847Z,12.32
2022-10-24T18:34:38.317Z,10.35
2022-10-24T18:37:30.363Z,11.48
2022-10-24T18:40:17.576Z,10.55
2022-10-24T18:43:08.326Z,6.32
2022-10-24T18:45:55.488Z,10.85
2022-10-24T18:48:53.001Z,13.55
2022-10-24T18:51:54.113Z,6.28
2022-10-24T18:54:54.800Z,10.18
2022-10-24T18:57:47.806Z,5.82
2022-10-24T19:00:26.329Z,13.70
2022-10-24T19:03:38.244Z,13.35
2022-10-24T19:09:40.495Z,13.10
2022-10-24T19:12:31.712Z,19.70
2022-10-24T19:15:28.048Z,15.38
2022-10-24T19:18:25.194Z,13.77
2022-10-24T19:21:19.477Z,10.82
2022-10-24T19:24:05.069Z,11.43
2022-10-24T19:26:49.072Z,7.95
2022-10-24T19:29:44.989Z,9.60
2022-10-24T19:32:31.604Z,12.18
2022-10-24T19:35:40.882Z,6.35
2022-10-24T19:38:29.128Z,14.00
2022-10-24T19:41:36.612Z,9.25
2022-10-24T19:44:23.745Z,13.90
2022-10-24T19:47:17.764Z,10.98
2022-10-24T19:49:58.866Z,12.50
2022-10-24T19:52:40.790Z,11.40
2022-10-24T19:55:34.518Z,13.63
2022-10-24T19:58:37.601Z,15.10
2022-10-24T20:01:25.031Z,18.38
2022-10-24T20:04:09.794Z,17.65
2022-10-24T20:06:50.869Z,16.08
2022-10-24T20:09:51.679Z,13.95
2022-10-24T20:12:36.676Z,15.60
2022-10-24T20:15:24.292Z,11.10
2022-10-24T20:18:10.015Z,17.77
2022-10-24T20:21:14.370Z,14.55
2022-10-24T20:23:59.824Z,18.52
2022-10-24T20:26:44.897Z,19.20
2022-10-24T20:29:23.993Z,21.42
2022-10-24T20:32:08.195Z,22.02
2022-10-24T20:34:49.144Z,21.08
2022-10-24T20:37:37.147Z,14.65
2022-10-24T20:40:22.243Z,19.02
2022-10-24T20:42:56.948Z,14.85
2022-10-24T20:45:48.215Z,15.10
2022-10-24T20:48:33.057Z,12.50
2022-10-24T20:51:22.915Z,18.10
2022-10-24T20:54:19.192Z,17.45
2022-10-24T20:57:32.215Z,18.23
2022-10-24T21:00:12.372Z,18.45
2022-10-24T21:02:41.980Z,19.98
2022-10-24T21:05:19.464Z,11.55
2022-10-24T21:08:08.270Z,17.92
2022-10-24T21:10:42.855Z,22.55
2022-10-24T21:13:29.460Z,22.02
2022-10-24T21:16:30.359Z,15.82
2022-10-24T21:19:05.045Z,22.23
2022-10-24T21:22:08.106Z,15.95
2022-10-24T21:24:45.455Z,13.38
2022-10-24T21:27:34.927Z,34.95
2022-10-24T21:35:45.569Z,15.20
2022-10-24T21:38:25.218Z,14.60
2022-10-24T21:41:09.118Z,23.08
2022-10-24T21:43:43.236Z,18.67
2022-10-24T21:46:35.515Z,17.85
2022-10-24T21:49:06.866Z,17.65
2022-10-24T21:52:05.107Z,10.55
2022-10-24T21:54:39.754Z,12.95
2022-10-24T21:57:08.978Z,10.98
2022-10-24T21:59:45.732Z,10.98
2022-10-24T22:02:17.734Z,12.23
2022-10-24T22:04:48.492Z,13.00
2022-10-24T22:07:17.879Z,18.00
2022-10-24T22:09:48.923Z,15.20
2022-10-24T22:12:18.021Z,13.05
2022-10-24T22:14:49.161Z,17.85
2022-10-24T22:17:20.995Z,20.02
2022-10-24T22:19:53.919Z,11.80
2022-10-24T22:22:24.745Z,13.10
2022-10-24T22:24:55.771Z,16.38
2022-10-24T22:27:23.870Z,14.13
2022-10-24T22:29:51.317Z,17.63
2022-10-24T22:35:02.416Z,13.55
2022-10-24T22:37:35.948Z,12.15
2022-10-24T22:40:40.093Z,12.63
2022-10-24T22:43:16.464Z,12.25
2022-10-24T22:46:16.791Z,6.70
2022-10-24T22:48:58.335Z,9.95
2022-10-24T22:51:32.270Z,12.98
2022-10-24T22:54:08.580Z,11.32
2022-10-24T22:56:42.940Z,12.60
2022-10-24T22:59:18.420Z,10.60
2022-10-24T23:02:08.225Z,10.00
2022-10-24T23:04:55.662Z,16.00
2022-10-24T23:07:45.383Z,23.60
2022-10-24T23:10:24.543Z,11.63
2022-10-24T23:12:59.885Z,13.30
2022-10-24T23:15:32.719Z,12.13
2022-10-24T23:18:03.458Z,15.18
2022-10-24T23:20:53.391Z,10.65
2022-10-24T23:23:31.255Z,13.20
2022-10-24T23:26:26.925Z,12.35
2022-10-24T23:29:18.336Z,14.82
2022-10-24T23:31:49.396Z,7.20
2022-10-24T23:34:45.753Z,10.13
2022-10-24T23:37:45.273Z,11.52
2022-10-24T23:40:28.024Z,8.82
2022-10-24T23:43:01.325Z,12.10
2022-10-24T23:45:42.598Z,6.85
2022-10-24T23:48:19.795Z,9.32
2022-10-24T23:51:01.032Z,10.48
2022-10-24T23:53:51.224Z,11.80
2022-10-24T23:56:33.119Z,5.75
2022-10-24T23:59:06.513Z,7.40
